createdAt,value
2018-11-05T00:00:32.649Z,0
2018-11-05T00:01:13.002Z,0
2018-11-05T00:01:53.359Z,0
2018-11-05T00:02:33.739Z,0
2018-11-05T00:03:14.913Z,0
2018-11-05T00:03:54.738Z,0
2018-11-05T00:04:35.167Z,0
2018-11-05T00:07:03.008Z,0
2018-11-05T00:07:43.125Z,0
2018-11-05T00:08:23.726Z,0
2018-11-05T00:09:04.126Z,0
2018-11-05T00:09:44.506Z,0
2018-11-05T00:10:24.984Z,0
2018-11-05T00:11:05.357Z,0
2018-11-05T00:11:45.774Z,0
2018-11-05T00:12:26.285Z,0
2018-11-05T00:13:06.743Z,0
2018-11-05T00:13:47.093Z,0
2018-11-05T00:14:27.455Z,0
2018-11-05T00:15:07.881Z,0
2018-11-05T00:15:48.298Z,0
2018-11-05T00:16:28.917Z,0
2018-11-05T00:17:09.256Z,0
2018-11-05T00:17:50.348Z,0
2018-11-05T00:18:30.671Z,0
2018-11-05T00:19:11.133Z,0
2018-11-05T00:19:51.477Z,0
2018-11-05T00:20:31.910Z,0
2018-11-05T00:21:13.547Z,0
2018-11-05T00:21:52.847Z,0
2018-11-05T00:22:33.369Z,0
2018-11-05T00:23:13.776Z,0
2018-11-05T00:23:54.114Z,0
2018-11-05T00:24:34.629Z,0
2018-11-05T00:25:15.005Z,0
2018-11-05T00:25:55.403Z,0
2018-11-05T00:26:35.819Z,0
2018-11-05T00:27:16.217Z,0
2018-11-05T00:27:56.629Z,0
2018-11-05T00:28:37.129Z,0
2018-11-05T00:29:17.464Z,0
2018-11-05T00:29:58.212Z,0
2018-11-05T00:30:38.336Z,0
2018-11-05T00:31:18.756Z,0
2018-11-05T00:31:59.366Z,0
2018-11-05T00:32:40.508Z,0
2018-11-05T00:33:20.430Z,0
2018-11-05T00:34:01.034Z,0
2018-11-05T00:34:41.375Z,0
2018-11-05T00:35:22.203Z,0
2018-11-05T00:36:02.740Z,0
2018-11-05T00:36:43.133Z,0
2018-11-05T00:37:23.618Z,0
2018-11-05T00:38:04.195Z,0
2018-11-05T00:38:44.992Z,0
2018-11-05T00:39:25.276Z,0
2018-11-05T00:40:05.643Z,0
2018-11-05T00:40:45.983Z,0
2018-11-05T00:41:26.466Z,0
2018-11-05T00:42:06.925Z,0
2018-11-05T00:42:47.241Z,0
2018-11-05T00:43:27.762Z,0
2018-11-05T00:44:08.108Z,0
2018-11-05T00:44:48.648Z,0
2018-11-05T00:45:28.894Z,0
2018-11-05T00:46:09.397Z,0
2018-11-05T00:46:49.696Z,0
2018-11-05T00:47:30.354Z,0
2018-11-05T00:48:10.726Z,0
2018-11-05T00:48:51.086Z,0
2018-11-05T00:49:31.505Z,0
2018-11-05T00:50:11.986Z,0
2018-11-05T00:50:52.400Z,0
2018-11-05T00:51:32.799Z,0
2018-11-05T00:52:13.217Z,0
2018-11-05T00:52:53.621Z,0
2018-11-05T00:53:34.074Z,0
2018-11-05T00:54:14.524Z,0
2018-11-05T00:54:54.959Z,0
2018-11-05T00:55:35.375Z,0
2018-11-05T00:56:15.772Z,0
2018-11-05T00:56:56.206Z,0
2018-11-05T00:57:36.687Z,0
2018-11-05T00:58:17.262Z,0
2018-11-05T00:58:57.524Z,0
2018-11-05T00:59:38.084Z,0
2018-11-05T01:00:18.399Z,0
2018-11-05T01:00:58.864Z,0
2018-11-05T01:01:39.284Z,0
2018-11-05T01:02:20.597Z,0
2018-11-05T01:03:01.103Z,0
2018-11-05T01:03:41.585Z,0
2018-11-05T01:04:21.812Z,0
2018-11-05T01:05:02.256Z,0
2018-11-05T01:05:42.623Z,0
2018-11-05T01:06:23.101Z,0
2018-11-05T01:07:03.431Z,0
2018-11-05T01:09:17.591Z,0
2018-11-05T01:09:58.133Z,0
2018-11-05T01:10:38.428Z,0
2018-11-05T01:11:19.093Z,0
2018-11-05T01:11:59.350Z,0
2018-11-05T01:12:39.836Z,0
2018-11-05T01:13:20.184Z,0
2018-11-05T01:14:00.612Z,0
2018-11-05T01:14:41.104Z,0
2018-11-05T01:15:21.437Z,0
2018-11-05T01:16:01.920Z,0
2018-11-05T01:16:42.341Z,0
2018-11-05T01:17:22.789Z,0
2018-11-05T01:18:03.302Z,0
2018-11-05T01:18:43.689Z,0
2018-11-05T01:19:24.037Z,0
2018-11-05T01:20:04.548Z,0
2018-11-05T01:20:44.925Z,0
2018-11-05T01:21:25.333Z,0
2018-11-05T01:22:05.711Z,0
2018-11-05T01:22:46.106Z,0
2018-11-05T01:23:26.433Z,0
2018-11-05T01:24:06.888Z,0
2018-11-05T01:24:47.221Z,0
2018-11-05T01:25:27.599Z,0
2018-11-05T01:26:08.038Z,0
2018-11-05T01:26:48.402Z,0
2018-11-05T01:27:28.873Z,0
2018-11-05T01:28:09.260Z,0
2018-11-05T01:28:49.709Z,0
2018-11-05T01:29:30.141Z,0
2018-11-05T01:30:10.510Z,0
2018-11-05T01:30:50.990Z,0
2018-11-05T01:31:31.368Z,0
2018-11-05T01:32:11.745Z,0
2018-11-05T01:32:52.192Z,0
2018-11-05T01:33:32.594Z,0
2018-11-05T01:34:12.928Z,0
2018-11-05T01:34:53.370Z,0
2018-11-05T01:35:33.776Z,0
2018-11-05T01:36:14.199Z,0
2018-11-05T01:36:54.617Z,0
2018-11-05T01:37:35.151Z,0
2018-11-05T01:38:15.518Z,0
2018-11-05T01:38:55.972Z,0
2018-11-05T01:39:36.371Z,0
2018-11-05T01:40:16.751Z,0
2018-11-05T01:40:57.193Z,0
2018-11-05T01:41:37.575Z,0
2018-11-05T01:42:17.958Z,0
2018-11-05T01:42:58.428Z,0
2018-11-05T01:43:38.871Z,0
2018-11-05T01:44:19.189Z,0
2018-11-05T01:44:59.605Z,0
2018-11-05T01:45:40.000Z,0
2018-11-05T01:46:20.448Z,0
2018-11-05T01:47:00.815Z,0
2018-11-05T01:47:41.203Z,0
2018-11-05T01:48:21.984Z,0
2018-11-05T01:49:02.370Z,0
2018-11-05T01:49:42.585Z,0
2018-11-05T01:50:23.210Z,0
2018-11-05T01:51:03.615Z,0
2018-11-05T01:51:44.021Z,0
2018-11-05T01:52:24.534Z,0
2018-11-05T01:53:04.867Z,0
2018-11-05T01:53:45.254Z,0
2018-11-05T01:54:25.716Z,0
2018-11-05T01:55:06.063Z,0
2018-11-05T01:55:46.515Z,0
2018-11-05T01:56:26.917Z,0
2018-11-05T01:57:07.271Z,0
2018-11-05T01:57:47.676Z,0
2018-11-05T01:58:28.112Z,0
2018-11-05T01:59:08.510Z,0
2018-11-05T01:59:48.943Z,0
2018-11-05T02:00:29.458Z,0
2018-11-05T02:01:09.921Z,0
2018-11-05T02:01:50.309Z,0
2018-11-05T02:02:30.635Z,0
2018-11-05T02:03:11.049Z,0
2018-11-05T02:03:51.472Z,0
2018-11-05T02:04:31.857Z,0
2018-11-05T02:05:12.279Z,0
2018-11-05T02:05:52.755Z,0
2018-11-05T02:06:33.059Z,0
2018-11-05T02:08:51.639Z,0
2018-11-05T02:09:31.760Z,0
2018-11-05T02:10:12.281Z,0
2018-11-05T02:10:52.597Z,0
2018-11-05T02:11:32.944Z,0
2018-11-05T02:12:13.300Z,0
2018-11-05T02:14:11.380Z,0
2018-11-05T02:14:51.193Z,0
2018-11-05T02:15:31.666Z,0
2018-11-05T02:16:12.057Z,0
2018-11-05T02:16:52.397Z,0
2018-11-05T02:17:32.919Z,0
2018-11-05T02:18:13.180Z,0
2018-11-05T02:18:53.567Z,0
2018-11-05T02:19:33.959Z,0
2018-11-05T02:20:14.365Z,0
2018-11-05T02:20:54.738Z,0
2018-11-05T02:21:35.186Z,0
2018-11-05T02:22:15.584Z,0
2018-11-05T02:22:55.991Z,0
2018-11-05T02:23:36.429Z,0
2018-11-05T02:24:16.961Z,0
2018-11-05T02:24:57.314Z,0
2018-11-05T02:25:37.760Z,0
2018-11-05T02:26:18.107Z,0
2018-11-05T02:26:58.505Z,0
2018-11-05T02:27:38.904Z,0
2018-11-05T02:28:19.426Z,0
2018-11-05T02:29:00.108Z,0
2018-11-05T02:29:40.485Z,0
2018-11-05T02:30:20.921Z,0
2018-11-05T02:31:01.339Z,0
2018-11-05T02:31:41.709Z,0
2018-11-05T02:32:22.105Z,0
2018-11-05T02:33:02.678Z,0
2018-11-05T02:33:42.929Z,0
2018-11-05T02:34:23.448Z,0
2018-11-05T02:35:03.936Z,0
2018-11-05T02:35:44.308Z,0
2018-11-05T02:36:24.889Z,0
2018-11-05T02:37:05.179Z,0
2018-11-05T02:37:45.524Z,0
2018-11-05T02:38:25.926Z,0
2018-11-05T02:39:06.416Z,0
2018-11-05T02:39:46.730Z,0
2018-11-05T02:40:27.141Z,0
2018-11-05T02:41:07.502Z,0
2018-11-05T02:41:47.925Z,0
2018-11-05T02:42:28.298Z,0
2018-11-05T02:43:08.707Z,0
2018-11-05T02:43:49.174Z,0
2018-11-05T02:44:29.539Z,0
2018-11-05T02:45:09.864Z,0
2018-11-05T02:45:50.451Z,0
2018-11-05T02:46:30.842Z,0
2018-11-05T02:47:11.201Z,0
2018-11-05T02:47:51.631Z,0
2018-11-05T02:48:32.026Z,0
2018-11-05T02:49:12.506Z,0
2018-11-05T02:49:52.909Z,0
2018-11-05T02:50:33.402Z,0
2018-11-05T02:51:13.687Z,0
2018-11-05T02:51:55.713Z,0
2018-11-05T02:52:36.060Z,0
2018-11-05T02:53:16.490Z,0
2018-11-05T02:53:56.934Z,0
2018-11-05T02:54:37.329Z,0
2018-11-05T02:55:17.826Z,0
2018-11-05T02:55:58.172Z,0
2018-11-05T02:56:39.021Z,0
2018-11-05T02:57:19.267Z,0
2018-11-05T02:57:59.706Z,0
2018-11-05T02:58:40.114Z,0
2018-11-05T02:59:20.518Z,0
2018-11-05T03:00:00.949Z,0
2018-11-05T03:00:41.310Z,0
2018-11-05T03:01:21.749Z,0
2018-11-05T03:02:02.146Z,0
2018-11-05T03:02:42.532Z,0
2018-11-05T03:03:23.086Z,0
2018-11-05T03:04:03.352Z,0
2018-11-05T03:04:43.743Z,0
2018-11-05T03:05:24.192Z,0
2018-11-05T03:06:04.541Z,0
2018-11-05T03:08:22.371Z,0
2018-11-05T03:09:02.746Z,0
2018-11-05T03:09:43.111Z,0
2018-11-05T03:10:23.529Z,0
2018-11-05T03:11:03.927Z,0
2018-11-05T03:11:44.469Z,0
2018-11-05T03:12:24.710Z,0
2018-11-05T03:13:05.094Z,0
2018-11-05T03:13:45.553Z,0
2018-11-05T03:14:25.948Z,0
2018-11-05T03:15:06.322Z,0
2018-11-05T03:15:46.729Z,0
2018-11-05T03:16:27.123Z,0
2018-11-05T03:17:07.551Z,0
2018-11-05T03:17:47.939Z,0
2018-11-05T03:18:28.327Z,0
2018-11-05T03:19:08.776Z,0
2018-11-05T03:19:49.118Z,0
2018-11-05T03:20:29.539Z,0
2018-11-05T03:21:09.971Z,0
2018-11-05T03:21:50.332Z,0
2018-11-05T03:22:30.716Z,0
2018-11-05T03:23:11.159Z,0
2018-11-05T03:23:51.655Z,0
2018-11-05T03:24:32.048Z,0
2018-11-05T03:25:12.497Z,0
2018-11-05T03:25:52.887Z,0
2018-11-05T03:26:33.248Z,0
2018-11-05T03:27:13.751Z,0
2018-11-05T03:27:54.062Z,0
2018-11-05T03:28:34.451Z,0
2018-11-05T03:29:14.852Z,0
2018-11-05T03:29:55.296Z,0
2018-11-05T03:32:29.676Z,0
2018-11-05T03:33:09.748Z,0
2018-11-05T03:33:50.164Z,0
2018-11-05T03:34:30.542Z,0
2018-11-05T03:35:10.974Z,0
2018-11-05T03:35:51.348Z,0
2018-11-05T03:36:31.757Z,0
2018-11-05T03:37:12.144Z,0
2018-11-05T03:37:52.539Z,0
2018-11-05T03:40:10.887Z,0
2018-11-05T03:40:51.254Z,0
2018-11-05T03:41:31.667Z,0
2018-11-05T03:42:12.141Z,0
2018-11-05T03:42:52.537Z,0
2018-11-05T03:43:32.859Z,0
2018-11-05T03:44:13.258Z,0
2018-11-05T03:44:53.673Z,0
2018-11-05T03:45:34.103Z,0
2018-11-05T03:46:14.488Z,0
2018-11-05T03:46:54.880Z,0
2018-11-05T03:47:35.269Z,0
2018-11-05T03:48:15.715Z,0
2018-11-05T03:48:56.239Z,0
2018-11-05T03:49:36.640Z,0
2018-11-05T03:50:17.062Z,0
2018-11-05T03:50:57.377Z,0
2018-11-05T03:51:37.804Z,0
2018-11-05T03:52:18.128Z,0
2018-11-05T03:52:58.534Z,0
2018-11-05T03:53:38.950Z,0
2018-11-05T03:54:19.344Z,0
2018-11-05T03:54:59.721Z,0
2018-11-05T03:55:40.206Z,0
2018-11-05T03:56:20.712Z,0
2018-11-05T03:57:00.948Z,0
2018-11-05T03:57:41.504Z,0
2018-11-05T03:58:21.923Z,0
2018-11-05T03:59:02.247Z,0
2018-11-05T03:59:42.669Z,0
2018-11-05T04:00:23.056Z,0
2018-11-05T04:01:03.830Z,0
2018-11-05T04:01:44.224Z,0
2018-11-05T04:02:24.791Z,0
2018-11-05T04:03:05.224Z,0
2018-11-05T04:03:45.605Z,0
2018-11-05T04:04:26.043Z,0
2018-11-05T04:05:06.461Z,0
2018-11-05T04:05:46.902Z,0
2018-11-05T04:06:27.425Z,0
2018-11-05T04:07:07.714Z,0
2018-11-05T04:07:48.177Z,0
2018-11-05T04:08:28.627Z,0
2018-11-05T04:09:09.095Z,0
2018-11-05T04:09:49.438Z,0
2018-11-05T04:10:29.893Z,0
2018-11-05T04:11:10.363Z,0
2018-11-05T04:11:50.666Z,0
2018-11-05T04:12:31.166Z,0
2018-11-05T04:15:04.056Z,0
2018-11-05T04:15:44.538Z,0
2018-11-05T04:16:24.919Z,0
2018-11-05T04:17:05.199Z,0
2018-11-05T04:17:45.603Z,0
2018-11-05T04:18:25.982Z,0
2018-11-05T04:19:06.436Z,0
2018-11-05T04:19:46.791Z,0
2018-11-05T04:20:27.263Z,0
2018-11-05T04:21:07.580Z,0
2018-11-05T04:21:48.128Z,0
2018-11-05T04:22:28.492Z,0
2018-11-05T04:23:08.895Z,0
2018-11-05T04:23:49.419Z,0
2018-11-05T04:24:29.809Z,0
2018-11-05T04:25:10.222Z,0
2018-11-05T04:25:50.634Z,0
2018-11-05T04:26:31.118Z,0
2018-11-05T04:27:11.630Z,0
2018-11-05T05:08:05.980Z,0
2018-11-05T05:08:56.931Z,0
2018-11-05T05:15:22.364Z,0
2018-11-05T05:16:39.678Z,0
2018-11-05T05:17:33.049Z,0
2018-11-05T05:18:31.839Z,0
2018-11-05T05:20:45.320Z,0
2018-11-05T05:21:39.120Z,0
2018-11-05T05:22:32.229Z,0
2018-11-05T05:23:25.995Z,0
2018-11-05T05:24:18.463Z,0
2018-11-05T05:25:18.032Z,0
2018-11-05T05:26:14.420Z,0
2018-11-05T05:27:07.232Z,0
2018-11-05T05:27:59.458Z,0
2018-11-05T05:28:51.916Z,0
2018-11-05T05:29:44.569Z,0
2018-11-05T05:30:37.477Z,0
2018-11-05T05:31:29.515Z,0
2018-11-05T05:32:21.796Z,0
2018-11-05T05:33:13.783Z,0
2018-11-05T05:34:06.302Z,0
2018-11-05T05:34:59.417Z,0
2018-11-05T05:35:51.846Z,0
2018-11-05T05:36:44.813Z,0
2018-11-05T05:37:36.759Z,0
2018-11-05T05:38:30.227Z,0
2018-11-05T05:39:22.665Z,0
2018-11-05T05:40:15.765Z,0
2018-11-05T05:41:07.917Z,0
2018-11-05T05:42:01.580Z,0
2018-11-05T05:42:53.274Z,0
2018-11-05T05:43:45.525Z,0
2018-11-05T05:44:37.926Z,0
2018-11-05T05:45:30.531Z,0
2018-11-05T05:46:23.963Z,0
2018-11-05T05:47:16.232Z,0
2018-11-05T05:48:08.232Z,0
2018-11-05T05:49:00.789Z,0
2018-11-05T05:49:52.880Z,0
2018-11-05T05:50:45.362Z,0
2018-11-05T05:51:38.018Z,0
2018-11-05T05:52:30.381Z,0
2018-11-05T05:53:22.775Z,0
2018-11-05T05:54:16.173Z,0
2018-11-05T05:55:08.289Z,0
2018-11-05T05:56:01.038Z,0
2018-11-05T05:56:53.960Z,0
2018-11-05T05:57:51.666Z,0
2018-11-05T05:58:44.543Z,0
2018-11-05T05:59:36.814Z,0
2018-11-05T06:00:30.828Z,0
2018-11-05T06:01:23.290Z,0
2018-11-05T06:02:15.800Z,0
2018-11-05T06:03:08.985Z,0
2018-11-05T06:04:03.328Z,0
2018-11-05T06:04:55.925Z,0
2018-11-05T06:05:49.025Z,0
2018-11-05T06:06:41.026Z,0
2018-11-05T06:07:32.920Z,0
2018-11-05T06:08:26.851Z,0
2018-11-05T06:09:20.202Z,0
2018-11-05T06:10:12.877Z,0
2018-11-05T06:10:57.470Z,0
2018-11-05T06:11:38.441Z,0
2018-11-05T06:12:19.814Z,0
2018-11-05T06:12:59.685Z,0
2018-11-05T06:13:40.853Z,0
2018-11-05T06:14:22.968Z,0
2018-11-05T06:15:03.772Z,0
2018-11-05T06:15:44.467Z,0
2018-11-05T06:16:25.195Z,0
2018-11-05T06:17:05.513Z,4
2018-11-05T06:17:47.927Z,4
2018-11-05T06:20:26.239Z,0
2018-11-05T06:21:23.053Z,4
2018-11-05T06:22:16.085Z,4
2018-11-05T06:23:11.104Z,4
2018-11-05T06:24:04.245Z,4
2018-11-05T06:24:57.114Z,4
2018-11-05T06:25:51.469Z,4
2018-11-05T06:26:50.701Z,8
2018-11-05T06:27:51.400Z,4
2018-11-05T06:28:46.920Z,8
2018-11-05T06:29:39.546Z,8
2018-11-05T06:30:33.992Z,8
2018-11-05T06:31:28.103Z,12
2018-11-05T06:32:22.946Z,12
2018-11-05T06:33:17.637Z,12
2018-11-05T06:34:12.071Z,16
2018-11-05T06:35:09.116Z,16
2018-11-05T06:36:05.105Z,20
2018-11-05T06:37:00.355Z,24
2018-11-05T06:37:52.433Z,32
2018-11-05T06:38:48.238Z,28
2018-11-05T06:39:43.350Z,36
2018-11-05T06:40:37.524Z,36
2018-11-05T06:41:35.271Z,52
2018-11-05T06:42:30.117Z,52
2018-11-05T06:43:23.893Z,52
2018-11-05T06:44:16.383Z,56
2018-11-05T06:45:11.408Z,52
2018-11-05T06:46:04.538Z,56
2018-11-05T06:47:06.900Z,60
2018-11-05T06:48:06.382Z,60
2018-11-05T06:49:06.880Z,68
2018-11-05T06:50:05.683Z,68
2018-11-05T06:51:00.127Z,76
2018-11-05T06:52:03.222Z,76
2018-11-05T06:52:56.159Z,84
2018-11-05T06:53:51.804Z,88
2018-11-05T06:54:44.288Z,96
2018-11-05T06:55:36.438Z,96
2018-11-05T06:56:28.805Z,104
2018-11-05T06:57:20.873Z,112
2018-11-05T06:58:13.533Z,124
2018-11-05T06:59:06.540Z,124
2018-11-05T06:59:59.837Z,120
2018-11-05T07:02:46.981Z,140
2018-11-05T07:03:27.204Z,144
2018-11-05T07:04:07.669Z,160
2018-11-05T07:04:52.416Z,168
2018-11-05T07:05:33.700Z,180
2018-11-05T07:06:15.551Z,172
2018-11-05T07:06:55.859Z,176
2018-11-05T07:07:44.961Z,176
2018-11-05T07:08:28.969Z,180
2018-11-05T07:09:11.395Z,176
2018-11-05T07:09:51.875Z,184
2018-11-05T07:10:32.179Z,188
2018-11-05T07:11:16.062Z,188
2018-11-05T07:12:03.482Z,184
2018-11-05T07:12:43.978Z,184
2018-11-05T07:13:27.209Z,192
2018-11-05T07:14:13.047Z,184
2018-11-05T07:14:55.449Z,192
2018-11-05T07:15:38.372Z,196
2018-11-05T07:16:21.024Z,192
2018-11-05T07:17:05.222Z,192
2018-11-05T07:17:47.903Z,196
2018-11-05T07:18:28.908Z,208
2018-11-05T07:19:18.262Z,220
2018-11-05T07:20:10.947Z,212
2018-11-05T07:20:51.908Z,208
2018-11-05T07:21:33.927Z,208
2018-11-05T07:22:16.291Z,204
2018-11-05T07:22:58.657Z,216
2018-11-05T07:23:49.949Z,224
2018-11-05T07:24:36.051Z,228
2018-11-05T07:25:18.440Z,244
2018-11-05T07:26:00.749Z,264
2018-11-05T07:26:41.475Z,272
2018-11-05T07:27:23.516Z,276
2018-11-05T07:28:04.435Z,292
2018-11-05T07:28:46.421Z,284
2018-11-05T07:29:30.310Z,280
2018-11-05T07:30:12.465Z,292
2018-11-05T07:30:55.956Z,304
2018-11-05T07:31:45.978Z,312
2018-11-05T07:32:26.992Z,320
2018-11-05T07:33:12.981Z,320
2018-11-05T07:33:59.287Z,320
2018-11-05T07:34:40.132Z,340
2018-11-05T07:35:22.410Z,320
2018-11-05T07:36:03.705Z,336
2018-11-05T07:36:48.212Z,340
2018-11-05T07:37:29.193Z,340
2018-11-05T07:38:11.376Z,332
2018-11-05T07:38:51.095Z,328
2018-11-05T07:39:34.309Z,336
2018-11-05T07:40:14.492Z,352
2018-11-05T07:40:54.869Z,380
2018-11-05T07:41:35.915Z,420
2018-11-05T07:42:16.360Z,420
2018-11-05T07:42:57.313Z,412
2018-11-05T07:43:37.652Z,408
2018-11-05T07:44:19.653Z,428
2018-11-05T07:45:00.201Z,428
2018-11-05T07:45:40.680Z,424
2018-11-05T07:46:21.141Z,432
2018-11-05T07:47:01.582Z,436
2018-11-05T07:47:42.085Z,456
2018-11-05T07:48:22.670Z,444
2018-11-05T07:49:06.943Z,416
2018-11-05T07:49:47.332Z,376
2018-11-05T07:50:28.025Z,352
2018-11-05T07:51:10.216Z,308
2018-11-05T07:51:50.599Z,304
2018-11-05T07:52:32.355Z,308
2018-11-05T07:53:15.633Z,320
2018-11-05T07:53:59.930Z,308
2018-11-05T07:54:41.665Z,312
2018-11-05T07:55:23.593Z,304
2018-11-05T07:56:06.451Z,292
2018-11-05T07:56:50.366Z,276
2018-11-05T07:57:33.448Z,268
2018-11-05T07:58:12.926Z,272
2018-11-05T07:58:53.419Z,296
2018-11-05T07:59:37.701Z,324
2018-11-05T08:00:25.523Z,304
2018-11-05T08:01:13.440Z,296
2018-11-05T08:01:54.677Z,300
2018-11-05T08:02:36.058Z,308
2018-11-05T08:03:17.387Z,276
2018-11-05T08:04:02.401Z,268
2018-11-05T08:04:45.729Z,284
2018-11-05T08:05:26.862Z,300
2018-11-05T08:11:02.727Z,308
2018-11-05T08:11:44.203Z,304
2018-11-05T08:12:25.170Z,272
2018-11-05T08:13:06.758Z,272
2018-11-05T08:13:47.347Z,256
2018-11-05T08:14:28.051Z,248
2018-11-05T08:15:08.349Z,244
2018-11-05T08:15:48.946Z,256
2018-11-05T08:16:29.426Z,260
2018-11-05T08:17:10.027Z,244
2018-11-05T08:17:50.795Z,240
2018-11-05T08:18:31.442Z,236
2018-11-05T08:19:12.397Z,248
2018-11-05T08:19:52.889Z,248
2018-11-05T08:20:33.325Z,264
2018-11-05T08:21:13.835Z,292
2018-11-05T08:21:55.177Z,296
2018-11-05T08:22:36.011Z,328
2018-11-05T08:23:16.682Z,328
2018-11-05T08:23:57.248Z,320
2018-11-05T08:24:38.241Z,320
2018-11-05T08:25:18.784Z,316
2018-11-05T08:25:59.278Z,324
2018-11-05T08:26:39.818Z,316
2018-11-05T08:27:20.586Z,304
2018-11-05T08:28:01.307Z,292
2018-11-05T08:28:41.589Z,292
2018-11-05T08:29:22.312Z,272
2018-11-05T08:30:03.162Z,284
2018-11-05T08:30:43.589Z,276
2018-11-05T08:31:24.263Z,276
2018-11-05T08:32:05.490Z,276
2018-11-05T08:32:46.703Z,264
2018-11-05T08:33:27.621Z,248
2018-11-05T08:34:12.187Z,256
2018-11-05T08:40:36.968Z,252
2018-11-05T08:41:17.342Z,272
2018-11-05T08:41:58.654Z,292
2018-11-05T08:42:39.940Z,284
2018-11-05T08:43:19.910Z,292
2018-11-05T08:44:01.520Z,284
2018-11-05T08:44:41.384Z,288
2018-11-05T08:45:22.091Z,296
2018-11-05T08:46:04.309Z,300
2018-11-05T08:46:45.185Z,312
2018-11-05T08:47:27.108Z,324
2018-11-05T08:48:07.935Z,332
2018-11-05T08:48:48.404Z,340
2018-11-05T08:49:29.281Z,348
2018-11-05T08:50:10.092Z,340
2018-11-05T08:50:51.068Z,332
2018-11-05T08:51:32.382Z,340
2018-11-05T08:52:13.333Z,396
2018-11-05T08:52:54.873Z,424
2018-11-05T08:53:36.444Z,432
2018-11-05T08:54:18.384Z,452
2018-11-05T08:55:00.537Z,448
2018-11-05T08:55:42.414Z,464
2018-11-05T08:56:26.216Z,436
2018-11-05T08:57:08.131Z,488
2018-11-05T08:57:48.895Z,504
2018-11-05T08:58:33.721Z,504
2018-11-05T08:59:13.598Z,516
2018-11-05T08:59:54.118Z,512
2018-11-05T09:00:34.755Z,504
2018-11-05T09:01:15.612Z,508
2018-11-05T09:01:59.152Z,520
2018-11-05T09:02:39.785Z,592
2018-11-05T09:03:20.523Z,692
2018-11-05T09:04:01.000Z,688
2018-11-05T09:04:43.537Z,680
2018-11-05T09:05:24.256Z,804
2018-11-05T09:06:05.498Z,812
2018-11-05T09:06:46.799Z,744
2018-11-05T09:07:26.802Z,692
2018-11-05T09:08:08.165Z,724
2018-11-05T09:08:49.451Z,656
2018-11-05T09:09:29.849Z,660
2018-11-05T09:10:10.428Z,728
2018-11-05T09:10:51.241Z,748
2018-11-05T09:11:42.440Z,888
2018-11-05T09:12:29.171Z,1032
2018-11-05T09:13:11.186Z,1224
2018-11-05T09:13:54.690Z,1488
2018-11-05T09:14:38.239Z,1404
2018-11-05T09:15:22.445Z,1508
2018-11-05T09:16:05.921Z,1560
2018-11-05T09:16:47.487Z,1520
2018-11-05T09:17:30.616Z,1412
2018-11-05T09:18:14.376Z,1248
2018-11-05T09:18:55.027Z,1228
2018-11-05T09:19:43.184Z,1260
2018-11-05T09:20:24.039Z,1492
2018-11-05T09:21:14.112Z,1576
2018-11-05T09:22:00.218Z,1616
2018-11-05T09:22:44.964Z,1600
2018-11-05T09:23:34.056Z,1616
2018-11-05T09:24:20.202Z,1676
2018-11-05T09:25:01.316Z,1712
2018-11-05T09:25:41.964Z,1552
2018-11-05T09:26:23.052Z,1648
2018-11-05T09:27:04.377Z,1640
2018-11-05T09:27:45.181Z,1580
2018-11-05T09:28:26.091Z,1560
2018-11-05T09:29:07.266Z,1608
2018-11-05T09:29:47.782Z,1396
2018-11-05T09:30:28.697Z,1364
2018-11-05T09:31:09.122Z,1292
2018-11-05T09:31:50.629Z,1264
2018-11-05T09:32:31.299Z,1176
2018-11-05T09:33:13.168Z,1216
2018-11-05T09:33:54.221Z,1208
2018-11-05T09:34:34.664Z,1216
2018-11-05T09:35:15.536Z,1328
2018-11-05T09:35:56.293Z,1468
2018-11-05T09:36:37.067Z,1340
2018-11-05T09:37:17.376Z,1308
2018-11-05T09:37:57.969Z,1296
2018-11-05T09:38:38.321Z,1216
2018-11-05T09:39:18.800Z,1168
2018-11-05T09:40:01.523Z,1096
2018-11-05T09:40:42.120Z,1064
2018-11-05T09:41:23.510Z,1112
2018-11-05T09:42:04.063Z,1344
2018-11-05T09:42:44.795Z,1432
2018-11-05T09:43:25.684Z,1348
2018-11-05T09:44:06.849Z,1368
2018-11-05T09:44:48.487Z,1380
2018-11-05T09:45:28.913Z,1328
2018-11-05T09:46:10.581Z,1256
2018-11-05T09:46:52.192Z,1320
2018-11-05T09:47:32.843Z,1260
2018-11-05T09:48:13.317Z,1288
2018-11-05T09:48:54.582Z,1248
2018-11-05T09:49:34.989Z,1288
2018-11-05T09:50:15.406Z,1276
2018-11-05T09:50:56.048Z,1272
2018-11-05T09:51:37.159Z,1212
2018-11-05T09:52:18.009Z,1240
2018-11-05T09:52:58.943Z,1264
2018-11-05T09:53:40.497Z,1216
2018-11-05T09:54:23.641Z,1308
2018-11-05T09:55:04.411Z,1236
2018-11-05T09:55:46.418Z,1268
2018-11-05T09:56:27.129Z,1288
2018-11-05T09:57:07.863Z,1344
2018-11-05T09:57:48.410Z,1344
2018-11-05T09:58:29.232Z,1332
2018-11-05T09:59:11.299Z,1368
2018-11-05T09:59:53.842Z,1280
2018-11-05T10:00:34.181Z,1288
2018-11-05T10:01:15.440Z,1268
2018-11-05T10:01:56.015Z,1296
2018-11-05T10:02:39.386Z,1268
2018-11-05T10:03:22.932Z,1168
2018-11-05T10:04:03.688Z,1132
2018-11-05T10:04:44.842Z,1116
2018-11-05T10:05:26.282Z,1160
2018-11-05T10:06:08.204Z,1212
2018-11-05T10:06:48.675Z,1200
2018-11-05T10:07:30.571Z,1316
2018-11-05T10:08:11.369Z,1364
2018-11-05T10:08:52.091Z,1324
2018-11-05T10:09:33.972Z,1352
2018-11-05T10:10:15.357Z,1480
2018-11-05T10:10:55.764Z,1452
2018-11-05T10:11:38.267Z,1516
2018-11-05T10:12:19.561Z,1608
2018-11-05T10:13:00.569Z,1484
2018-11-05T10:13:41.473Z,1472
2018-11-05T10:14:22.857Z,1368
2018-11-05T10:15:04.187Z,1276
2018-11-05T10:15:46.101Z,1320
2018-11-05T10:16:27.731Z,1360
2018-11-05T10:17:10.150Z,1260
2018-11-05T10:17:53.637Z,1184
2018-11-05T10:18:34.021Z,1136
2018-11-05T10:19:15.062Z,1068
2018-11-05T10:19:55.981Z,1076
2018-11-05T10:20:36.963Z,1156
2018-11-05T10:21:18.848Z,1192
2018-11-05T10:22:01.147Z,1184
2018-11-05T10:22:42.227Z,1248
2018-11-05T10:23:30.305Z,1348
2018-11-05T10:24:12.910Z,1500
2018-11-05T10:24:54.826Z,1440
2018-11-05T10:25:36.217Z,1372
2018-11-05T10:26:17.017Z,1324
2018-11-05T10:26:58.213Z,1372
2018-11-05T10:27:39.536Z,1512
2018-11-05T10:28:24.501Z,1584
2018-11-05T10:29:05.452Z,1692
2018-11-05T11:08:33.232Z,1608
2018-11-05T11:09:38.560Z,1696
2018-11-05T11:10:43.275Z,1940
2018-11-05T11:11:43.880Z,1956
2018-11-05T11:12:47.761Z,1752
2018-11-05T11:13:41.974Z,1936
2018-11-05T11:14:23.556Z,1796
2018-11-05T11:15:05.949Z,1708
2018-11-05T11:15:47.021Z,1648
2018-11-05T11:16:28.090Z,1564
2018-11-05T11:17:09.092Z,1388
2018-11-05T11:17:49.078Z,1396
2018-11-05T11:18:30.909Z,1220
2018-11-05T11:19:11.619Z,1128
2018-11-05T11:19:53.631Z,1172
2018-11-05T11:20:51.505Z,1136
2018-11-05T11:23:14.015Z,1192
2018-11-05T11:23:54.463Z,1332
2018-11-05T11:24:47.774Z,1260
2018-11-05T11:25:30.270Z,1360
2018-11-05T11:26:10.911Z,1356
2018-11-05T11:26:58.210Z,1336
2018-11-05T11:27:43.162Z,1388
2018-11-05T11:28:24.559Z,1352
2018-11-05T11:29:04.939Z,1188
2018-11-05T11:29:45.384Z,1220
2018-11-05T11:30:25.773Z,1240
2018-11-05T11:31:06.730Z,1188
2018-11-05T11:31:48.250Z,1196
2018-11-05T11:32:27.941Z,1216
2018-11-05T11:33:09.430Z,1256
2018-11-05T11:33:50.162Z,1264
2018-11-05T11:34:30.628Z,1292
2018-11-05T11:35:11.200Z,1344
2018-11-05T11:35:51.779Z,1260
2018-11-05T11:36:32.631Z,1368
2018-11-05T11:37:14.669Z,1376
2018-11-05T11:37:56.748Z,1372
2018-11-05T11:38:36.315Z,1332
2018-11-05T11:39:18.746Z,1224
2018-11-05T11:39:59.247Z,1200
2018-11-05T11:40:40.253Z,1276
2018-11-05T11:41:21.916Z,1284
2018-11-05T11:42:03.073Z,1220
2018-11-05T11:42:43.259Z,1220
2018-11-05T11:43:24.250Z,1248
2018-11-05T11:44:05.977Z,1200
2018-11-05T11:44:47.970Z,1212
2018-11-05T11:45:29.259Z,1236
2018-11-05T11:46:10.250Z,1196
2018-11-05T11:46:51.575Z,1100
2018-11-05T11:47:33.735Z,1060
2018-11-05T11:48:14.733Z,1076
2018-11-05T11:48:56.507Z,984
2018-11-05T11:49:36.341Z,980
2018-11-05T11:50:17.951Z,928
2018-11-05T11:50:58.498Z,892
2018-11-05T11:51:38.793Z,844
2018-11-05T11:52:19.576Z,800
2018-11-05T11:53:00.582Z,768
2018-11-05T11:53:41.100Z,764
2018-11-05T11:54:21.954Z,756
2018-11-05T11:55:02.539Z,744
2018-11-05T11:55:43.281Z,736
2018-11-05T11:56:23.962Z,724
2018-11-05T11:57:04.414Z,716
2018-11-05T11:57:45.139Z,708
2018-11-05T11:58:25.622Z,700
2018-11-05T11:59:06.277Z,692
2018-11-05T11:59:47.101Z,696
2018-11-05T12:00:28.893Z,700
2018-11-05T12:01:09.295Z,692
2018-11-05T12:01:51.565Z,688
2018-11-05T12:02:31.365Z,680
2018-11-05T12:03:11.539Z,680
2018-11-05T12:03:52.853Z,684
2018-11-05T12:04:33.194Z,700
2018-11-05T12:05:13.677Z,712